createdAt,value
2023-03-17T00:01:56.140Z,11.27
2023-03-17T00:04:58.153Z,11.73
2023-03-17T00:08:19.810Z,12.05
2023-03-17T00:11:21.642Z,11.43
2023-03-17T00:14:23.402Z,10.90
2023-03-17T00:17:25.153Z,10.43
2023-03-17T00:20:28.947Z,9.70
2023-03-17T00:23:31.463Z,12.38
2023-03-17T00:26:33.504Z,10.25
2023-03-17T00:29:35.096Z,11.35
2023-03-17T00:32:36.724Z,10.57
2023-03-17T00:35:38.376Z,10.03
2023-03-17T00:38:40.270Z,13.50
2023-03-17T00:41:42.417Z,12.07
2023-03-17T00:44:48.921Z,9.23
2023-03-17T00:47:51.738Z,11.50
2023-03-17T00:50:53.379Z,13.68
2023-03-17T00:53:57.080Z,11.82
2023-03-17T00:56:58.647Z,11.18
2023-03-17T01:00:04.828Z,10.00
2023-03-17T01:03:09.214Z,12.05
2023-03-17T01:06:12.213Z,11.37
2023-03-17T01:09:18.565Z,11.00
2023-03-17T01:12:20.841Z,11.30
2023-03-17T01:15:27.013Z,10.83
2023-03-17T01:18:28.679Z,13.88
2023-03-17T01:21:30.673Z,11.82
2023-03-17T01:24:33.217Z,10.88
2023-03-17T01:27:35.927Z,15.70
2023-03-17T01:30:38.594Z,14.07
2023-03-17T01:33:41.710Z,12.82
2023-03-17T01:36:43.365Z,14.60
2023-03-17T01:39:45.564Z,13.10
2023-03-17T01:42:55.134Z,13.75
2023-03-17T01:46:25.180Z,14.37
2023-03-17T01:49:37.560Z,12.70
2023-03-17T01:52:39.801Z,13.43
2023-03-17T01:55:41.731Z,12.50
2023-03-17T01:58:43.800Z,14.27
2023-03-17T02:01:47.382Z,14.88
2023-03-17T02:04:50.716Z,12.30
2023-03-17T02:07:53.639Z,12.43
2023-03-17T02:10:56.375Z,10.77
2023-03-17T02:13:58.088Z,12.90
2023-03-17T02:17:02.780Z,13.10
2023-03-17T02:20:27.451Z,12.00
2023-03-17T02:23:29.615Z,11.40
2023-03-17T02:26:32.303Z,10.93
2023-03-17T02:29:35.968Z,11.27
2023-03-17T02:32:38.007Z,10.45
2023-03-17T02:35:40.066Z,12.38
2023-03-17T02:38:42.264Z,13.53
2023-03-17T02:41:44.008Z,11.73
2023-03-17T02:44:45.735Z,9.70
2023-03-17T02:47:47.813Z,12.17
2023-03-17T02:50:49.553Z,13.32
2023-03-17T02:53:51.208Z,13.25
2023-03-17T02:56:52.913Z,13.50
2023-03-17T02:59:54.534Z,12.95
2023-03-17T03:03:00.316Z,12.95
2023-03-17T03:06:03.208Z,11.40
2023-03-17T03:09:05.696Z,14.30
2023-03-17T03:12:09.999Z,13.70
2023-03-17T03:15:11.795Z,11.52
2023-03-17T03:18:13.487Z,11.37
2023-03-17T03:21:15.533Z,12.15
2023-03-17T03:24:17.209Z,10.70
2023-03-17T03:27:18.843Z,12.25
2023-03-17T03:30:20.802Z,12.00
2023-03-17T03:33:22.653Z,10.75
2023-03-17T03:36:25.388Z,10.93
2023-03-17T03:39:27.005Z,11.67
2023-03-17T03:42:28.712Z,12.18
2023-03-17T03:45:30.343Z,9.18
2023-03-17T03:48:36.193Z,11.67
2023-03-17T03:51:37.858Z,12.25
2023-03-17T03:54:39.532Z,15.55
2023-03-17T03:57:41.273Z,11.02
2023-03-17T04:00:42.982Z,11.80
2023-03-17T04:03:47.358Z,10.98
2023-03-17T04:06:49.069Z,15.25
2023-03-17T04:09:51.005Z,15.10
2023-03-17T04:12:52.649Z,14.77
2023-03-17T04:15:54.570Z,14.63
2023-03-17T04:18:59.870Z,11.23
2023-03-17T04:22:01.649Z,12.73
2023-03-17T04:25:03.478Z,20.42
2023-03-17T04:28:05.250Z,15.10
2023-03-17T04:31:07.742Z,13.65
2023-03-17T04:34:13.604Z,15.05
2023-03-17T04:37:15.798Z,15.63
2023-03-17T04:40:18.167Z,15.73
2023-03-17T04:43:19.810Z,13.55
2023-03-17T04:46:21.411Z,15.02
2023-03-17T04:49:23.088Z,14.43
2023-03-17T04:52:24.791Z,14.48
2023-03-17T04:55:27.551Z,15.23
2023-03-17T04:58:31.064Z,16.08
2023-03-17T05:01:33.113Z,16.35
2023-03-17T05:04:34.913Z,14.93
2023-03-17T05:07:36.694Z,15.35
2023-03-17T05:10:38.397Z,15.70
2023-03-17T05:13:41.055Z,14.88
2023-03-17T05:16:42.762Z,14.45
2023-03-17T05:19:44.454Z,15.80
2023-03-17T05:22:46.606Z,15.45
2023-03-17T05:25:48.703Z,16.88
2023-03-17T05:28:50.342Z,15.60
2023-03-17T05:31:52.132Z,13.20
2023-03-17T05:34:56.627Z,14.65
2023-03-17T05:37:58.287Z,15.88
2023-03-17T05:40:59.866Z,15.57
2023-03-17T05:44:01.545Z,14.05
2023-03-17T05:47:03.299Z,15.05
2023-03-17T05:50:05.271Z,14.77
2023-03-17T05:53:06.896Z,15.02
2023-03-17T05:56:09.368Z,14.90
2023-03-17T05:59:14.903Z,16.50
2023-03-17T06:02:16.588Z,15.43
2023-03-17T06:05:18.292Z,13.82
2023-03-17T06:08:19.915Z,18.17
2023-03-17T06:11:21.809Z,12.83
2023-03-17T06:14:24.944Z,16.30
2023-03-17T06:17:28.801Z,12.45
2023-03-17T06:20:31.312Z,14.13
2023-03-17T06:23:32.927Z,12.90
2023-03-17T06:26:34.689Z,14.88
2023-03-17T06:29:36.852Z,12.13
2023-03-17T06:32:38.594Z,14.48
2023-03-17T06:35:40.658Z,12.73
2023-03-17T06:38:42.353Z,14.68
2023-03-17T06:41:44.172Z,13.93
2023-03-17T06:44:46.234Z,16.80
2023-03-17T06:47:47.988Z,14.98
2023-03-17T06:50:50.305Z,14.75
2023-03-17T06:53:51.952Z,15.63
2023-03-17T06:56:53.709Z,13.43
2023-03-17T06:59:55.471Z,15.93
2023-03-17T07:02:57.900Z,14.15
2023-03-17T07:06:00.116Z,15.27
2023-03-17T07:09:02.542Z,14.75
2023-03-17T07:12:15.194Z,16.60
2023-03-17T07:15:17.426Z,16.42
2023-03-17T07:18:19.843Z,13.20
2023-03-17T07:21:21.458Z,18.10
2023-03-17T07:24:23.675Z,12.83
2023-03-17T07:27:26.690Z,18.83
2023-03-17T07:30:28.783Z,14.90
2023-03-17T07:33:31.503Z,14.13
2023-03-17T07:36:33.897Z,14.60
2023-03-17T07:39:36.121Z,12.57
2023-03-17T07:42:40.507Z,12.27
2023-03-17T07:45:45.378Z,13.60
2023-03-17T07:48:47.147Z,11.05
2023-03-17T07:51:48.844Z,11.73
2023-03-17T07:54:52.315Z,9.77
2023-03-17T07:57:54.193Z,12.80
2023-03-17T08:00:58.054Z,13.70
2023-03-17T08:04:00.582Z,11.40
2023-03-17T08:07:02.367Z,10.52
2023-03-17T08:10:05.957Z,12.97
2023-03-17T08:13:10.821Z,12.60
2023-03-17T08:16:12.882Z,10.27
2023-03-17T08:19:14.700Z,10.30
2023-03-17T08:22:16.430Z,9.30
2023-03-17T08:25:18.158Z,10.57
2023-03-17T08:28:20.240Z,9.30
2023-03-17T08:31:22.721Z,8.35
2023-03-17T08:34:24.580Z,10.00
2023-03-17T08:37:27.067Z,9.20
2023-03-17T08:40:29.240Z,8.40
2023-03-17T08:43:31.695Z,8.07
2023-03-17T08:46:33.486Z,7.82
2023-03-17T08:49:36.665Z,11.02
2023-03-17T08:52:38.362Z,10.00
2023-03-17T08:55:40.131Z,9.37
2023-03-17T08:58:42.771Z,8.87
2023-03-17T09:01:45.582Z,8.38
2023-03-17T09:04:48.753Z,6.85
2023-03-17T09:07:50.586Z,6.75
2023-03-17T09:10:52.268Z,9.67
2023-03-17T09:13:54.615Z,7.27
2023-03-17T09:16:57.407Z,8.05
2023-03-17T09:19:59.806Z,7.90
2023-03-17T09:23:01.625Z,7.22
2023-03-17T09:26:03.820Z,7.53
2023-03-17T09:29:05.566Z,7.43
2023-03-17T09:32:08.795Z,7.50
2023-03-17T09:35:10.874Z,8.07
2023-03-17T09:38:12.931Z,9.40
2023-03-17T09:41:32.902Z,7.77
2023-03-17T09:44:57.288Z,7.53
2023-03-17T09:48:49.696Z,7.68
2023-03-17T09:51:51.630Z,7.28
2023-03-17T09:54:53.227Z,6.68
2023-03-17T09:57:56.895Z,8.67
2023-03-17T10:01:00.133Z,7.57
2023-03-17T10:04:02.838Z,8.50
2023-03-17T10:07:04.679Z,7.88
2023-03-17T10:10:27.147Z,7.80
2023-03-17T10:13:38.156Z,6.93
2023-03-17T10:16:48.430Z,8.70
2023-03-17T10:20:04.804Z,7.80
2023-03-17T10:23:07.533Z,7.15
2023-03-17T10:26:23.253Z,6.75
2023-03-17T10:29:25.481Z,7.43
2023-03-17T10:32:27.256Z,7.97
2023-03-17T10:35:29.616Z,6.40
2023-03-17T10:38:31.989Z,6.55
2023-03-17T10:41:36.231Z,6.82
2023-03-17T10:44:47.437Z,7.47
2023-03-17T10:47:50.190Z,6.80
2023-03-17T10:50:52.942Z,7.30
2023-03-17T10:53:56.041Z,7.53
2023-03-17T10:57:02.833Z,7.43
2023-03-17T11:00:06.991Z,7.13
2023-03-17T11:03:23.565Z,6.97
2023-03-17T11:06:52.564Z,7.05
2023-03-17T11:10:02.543Z,8.45
2023-03-17T11:13:06.847Z,7.03
2023-03-17T11:16:11.062Z,7.83
2023-03-17T11:19:18.991Z,7.40
2023-03-17T11:23:04.982Z,9.15
2023-03-17T11:26:35.020Z,8.02
2023-03-17T11:30:14.845Z,9.38
2023-03-17T11:33:36.567Z,8.77
2023-03-17T11:36:38.169Z,7.43
2023-03-17T11:40:07.852Z,7.68
2023-03-17T11:43:43.948Z,9.00
2023-03-17T11:47:03.978Z,8.23
2023-03-17T11:50:17.758Z,8.70
2023-03-17T11:53:25.375Z,7.80
2023-03-17T11:56:37.117Z,7.47
2023-03-17T11:59:52.176Z,8.75
2023-03-17T12:02:58.087Z,11.90
2023-03-17T12:06:05.600Z,8.73
2023-03-17T12:09:23.747Z,8.17
2023-03-17T12:12:30.638Z,9.57
2023-03-17T12:15:38.489Z,9.55
2023-03-17T12:18:43.227Z,9.57
2023-03-17T12:22:14.012Z,11.50
2023-03-17T12:25:27.262Z,10.27
2023-03-17T12:28:33.295Z,8.13
2023-03-17T12:31:36.981Z,8.95
2023-03-17T12:34:46.934Z,8.88
2023-03-17T12:37:49.036Z,8.77
2023-03-17T12:40:51.372Z,8.87
2023-03-17T12:44:11.891Z,8.00
2023-03-17T12:47:19.748Z,9.50
2023-03-17T12:50:24.493Z,9.18
2023-03-17T12:53:28.488Z,8.50
2023-03-17T12:56:31.715Z,8.60
2023-03-17T12:59:34.117Z,7.95
2023-03-17T13:02:37.572Z,8.75
2023-03-17T13:05:39.470Z,7.82
2023-03-17T13:08:42.265Z,7.67
2023-03-17T13:11:44.048Z,7.90
2023-03-17T13:14:47.722Z,7.78
2023-03-17T13:17:49.626Z,8.32
2023-03-17T13:20:57.659Z,7.55
2023-03-17T13:24:20.586Z,9.60
2023-03-17T13:27:31.498Z,7.97
2023-03-17T13:30:36.531Z,7.65
2023-03-17T13:33:49.811Z,8.65
2023-03-17T13:37:23.683Z,6.57
2023-03-17T13:40:35.790Z,7.40
2023-03-17T13:43:57.108Z,7.03
2023-03-17T13:47:23.737Z,7.20
2023-03-17T13:50:30.976Z,8.70
2023-03-17T13:53:34.901Z,9.55
2023-03-17T13:56:36.704Z,10.07
2023-03-17T13:59:54.427Z,9.70
2023-03-17T14:03:06.436Z,8.15
2023-03-17T14:06:08.625Z,8.32
2023-03-17T14:09:17.311Z,9.43
2023-03-17T14:12:27.466Z,7.73
2023-03-17T14:15:42.110Z,7.80
2023-03-17T14:18:49.785Z,8.27
2023-03-17T14:21:51.484Z,10.38
2023-03-17T14:24:59.408Z,9.18
2023-03-17T14:28:01.249Z,8.90
2023-03-17T14:31:05.011Z,7.47
2023-03-17T14:34:17.460Z,8.68
2023-03-17T14:37:19.654Z,9.68
2023-03-17T14:40:23.441Z,7.60
2023-03-17T14:43:25.490Z,8.57
2023-03-17T14:46:29.124Z,9.07
2023-03-17T14:49:32.493Z,7.95
2023-03-17T14:52:35.946Z,9.70
2023-03-17T14:55:41.101Z,9.18
2023-03-17T14:58:45.348Z,7.67
2023-03-17T15:01:48.689Z,8.37
2023-03-17T15:05:18.302Z,10.38
2023-03-17T15:08:36.372Z,7.88
2023-03-17T15:11:40.877Z,9.98
2023-03-17T15:14:42.533Z,7.33
2023-03-17T15:17:44.486Z,6.40
2023-03-17T15:20:46.331Z,8.60
2023-03-17T15:23:48.874Z,7.40
2023-03-17T15:26:59.370Z,6.97
2023-03-17T15:30:04.520Z,6.37
2023-03-17T15:33:28.526Z,7.30
2023-03-17T15:36:33.040Z,6.57
2023-03-17T15:39:34.951Z,7.40
2023-03-17T15:42:37.753Z,5.60
2023-03-17T15:45:39.379Z,8.50
2023-03-17T15:48:41.076Z,7.43
2023-03-17T15:51:42.889Z,7.15
2023-03-17T15:54:44.637Z,5.88
2023-03-17T15:57:54.880Z,8.63
2023-03-17T16:00:58.157Z,8.23
2023-03-17T16:03:59.816Z,6.13
2023-03-17T16:07:01.582Z,7.00
2023-03-17T16:10:19.708Z,7.03
2023-03-17T16:13:25.449Z,8.52
2023-03-17T16:16:31.808Z,7.33
2023-03-17T16:19:33.987Z,7.30
2023-03-17T16:22:38.302Z,6.75
2023-03-17T16:25:40.076Z,9.85
2023-03-17T16:28:41.903Z,9.13
2023-03-17T16:31:44.733Z,6.70
2023-03-17T16:34:46.457Z,6.47
2023-03-17T16:37:48.463Z,7.40
2023-03-17T16:40:59.404Z,10.18
2023-03-17T16:44:04.366Z,7.35
2023-03-17T16:47:06.295Z,8.03
2023-03-17T16:50:16.380Z,8.83
2023-03-17T16:53:18.148Z,7.53
2023-03-17T16:56:24.369Z,8.88
2023-03-17T16:59:35.588Z,8.95
2023-03-17T17:02:37.302Z,8.10
2023-03-17T17:05:40.216Z,10.77
2023-03-17T17:08:43.314Z,9.55
2023-03-17T17:11:45.277Z,7.28
2023-03-17T17:14:46.898Z,10.40
2023-03-17T17:18:02.374Z,6.87
2023-03-17T17:21:04.140Z,9.32
2023-03-17T17:24:09.869Z,9.52
2023-03-17T17:27:12.630Z,10.20
2023-03-17T17:30:20.817Z,9.47
2023-03-17T17:33:22.547Z,9.27
2023-03-17T17:36:27.368Z,8.68
2023-03-17T17:39:29.072Z,10.18
2023-03-17T17:42:30.809Z,11.02
2023-03-17T17:45:36.892Z,8.97
2023-03-17T17:48:38.535Z,8.65
2023-03-17T17:51:43.198Z,8.10
2023-03-17T17:54:48.717Z,9.00
2023-03-17T17:57:52.436Z,9.33
2023-03-17T18:01:00.746Z,9.30
2023-03-17T18:04:05.846Z,9.00
2023-03-17T18:07:07.711Z,8.70
2023-03-17T18:10:14.860Z,11.52
2023-03-17T18:13:16.970Z,9.20
2023-03-17T18:16:19.135Z,9.00
2023-03-17T18:19:24.802Z,7.57
2023-03-17T18:22:30.197Z,9.48
2023-03-17T18:25:32.995Z,9.43
2023-03-17T18:28:38.535Z,6.70
2023-03-17T18:31:48.639Z,8.35
2023-03-17T18:34:53.219Z,8.43
2023-03-17T18:37:56.645Z,9.30
2023-03-17T18:40:58.469Z,12.70
2023-03-17T18:44:00.101Z,12.23
2023-03-17T18:47:05.319Z,13.80
2023-03-17T18:50:08.344Z,17.87
2023-03-17T18:53:13.760Z,12.88
2023-03-17T18:56:21.510Z,15.73
2023-03-17T18:59:23.113Z,14.23
2023-03-17T19:02:28.397Z,16.90
2023-03-17T19:05:30.551Z,24.15
2023-03-17T19:08:36.779Z,19.73
2023-03-17T19:11:41.427Z,15.13
2023-03-17T19:14:43.055Z,10.67
2023-03-17T19:17:44.636Z,12.55
2023-03-17T19:20:50.689Z,10.85
2023-03-17T19:23:55.628Z,12.48
2023-03-17T19:26:57.306Z,10.87
2023-03-17T19:29:58.971Z,9.52
2023-03-17T19:33:03.823Z,9.30
2023-03-17T19:36:11.971Z,11.63
2023-03-17T19:39:14.035Z,13.53
2023-03-17T19:42:16.250Z,10.38
2023-03-17T19:45:18.049Z,12.95
2023-03-17T19:48:23.241Z,10.93
2023-03-17T19:51:28.235Z,16.40
2023-03-17T19:54:33.424Z,15.70
2023-03-17T19:57:35.734Z,11.27
2023-03-17T20:00:37.455Z,12.25
2023-03-17T20:03:45.352Z,11.37
2023-03-17T20:06:50.869Z,16.08
2023-03-17T20:09:54.190Z,12.13
2023-03-17T20:12:55.960Z,12.18
2023-03-17T20:15:57.621Z,17.70
2023-03-17T20:19:04.819Z,10.35
2023-03-17T20:22:10.332Z,11.48
2023-03-17T20:25:12.384Z,12.15
2023-03-17T20:28:17.835Z,11.80
2023-03-17T20:31:19.543Z,12.95
2023-03-17T20:34:21.576Z,11.38
2023-03-17T20:37:23.510Z,12.43
2023-03-17T20:40:25.611Z,12.23
2023-03-17T20:43:27.515Z,11.02
2023-03-17T20:46:29.387Z,9.80
2023-03-17T20:49:34.737Z,11.05
2023-03-17T20:52:37.214Z,12.23
2023-03-17T20:55:43.075Z,10.95
2023-03-17T20:58:50.618Z,10.63
2023-03-17T21:01:52.390Z,10.52
2023-03-17T21:04:57.816Z,10.80
2023-03-17T21:07:59.415Z,9.63
2023-03-17T21:11:07.042Z,11.57
2023-03-17T21:14:09.156Z,10.88
2023-03-17T21:17:11.109Z,10.23
2023-03-17T21:20:16.358Z,12.98
2023-03-17T21:23:21.881Z,13.25
2023-03-17T21:26:24.801Z,14.88
2023-03-17T21:29:27.523Z,9.80
2023-03-17T21:32:29.138Z,11.35
2023-03-17T21:35:34.561Z,10.65
2023-03-17T21:38:39.540Z,11.57
2023-03-17T21:41:45.056Z,11.87
2023-03-17T21:44:51.462Z,10.43
2023-03-17T21:47:53.227Z,9.77
2023-03-17T21:50:59.745Z,10.45
2023-03-17T21:54:02.125Z,9.30
2023-03-17T21:57:04.282Z,11.32
2023-03-17T22:00:08.090Z,10.10
2023-03-17T22:03:09.796Z,10.85
2023-03-17T22:06:15.652Z,8.90
2023-03-17T22:09:19.217Z,9.73
2023-03-17T22:12:24.867Z,9.65
2023-03-17T22:15:31.180Z,10.43
2023-03-17T22:18:35.747Z,12.63
2023-03-17T22:21:40.527Z,9.70
2023-03-17T22:24:46.916Z,11.38
2023-03-17T22:27:48.503Z,10.20
2023-03-17T22:30:50.695Z,13.88
2023-03-17T22:33:55.065Z,14.57
2023-03-17T22:37:00.938Z,13.52
2023-03-17T22:40:06.089Z,13.93
2023-03-17T22:43:08.019Z,12.77
2023-03-17T22:46:10.926Z,12.70
2023-03-17T22:49:12.953Z,14.35
2023-03-17T22:52:17.648Z,13.37
2023-03-17T22:55:23.208Z,12.27
2023-03-17T22:58:25.004Z,16.80
2023-03-17T23:01:27.427Z,13.43
2023-03-17T23:04:29.054Z,12.60
2023-03-17T23:07:49.677Z,12.95
2023-03-17T23:10:52.017Z,11.77
2023-03-17T23:13:53.894Z,13.38
2023-03-17T23:16:55.587Z,12.80
2023-03-17T23:19:57.482Z,11.35
2023-03-17T23:23:02.893Z,13.38
2023-03-17T23:26:10.230Z,13.80
2023-03-17T23:29:12.716Z,15.13
2023-03-17T23:32:14.611Z,14.25
2023-03-17T23:35:16.336Z,17.00
2023-03-17T23:38:19.610Z,16.65
2023-03-17T23:41:25.156Z,14.48
2023-03-17T23:44:30.678Z,14.98
2023-03-17T23:47:32.294Z,16.40
2023-03-17T23:50:38.124Z,18.85
2023-03-17T23:53:42.717Z,21.45
2023-03-17T23:56:49.162Z,17.73
2023-03-17T23:59:53.780Z,17.95
